Reklama
Líbí se Vám tento web? Budeme velmi rádi, pokud přidáte hodnocení +1

Seznam meteostanic a jejich METAR

Vyhledat místa podle abecedy:
A B C D E F G H I J K L M N O P Q R S T U V W X Y Z

Filtrovat:

ID stanice:
a/nebo
Název místa (fulltext):
 
Místo (ID)Naposledy načteno 
Doksany - Litoměřice (Doksany) 21.06.2018 02:00 UTC Zobrazit data
Místo: Doksany - Litoměřice
Teplota: 15 °C (pocitová: 22.4 °C)
Vítr: 0 m/s z(e) 0°
Počasí: skoro zataženo
Dohlednost: 18 km
Zákl. oblačnosti: 5/8 2100 m
Vlhkost: 94%
Dukovany (Dukovany) 21.06.2018 02:00 UTC Zobrazit data
Místo: Dukovany
Teplota: 16 °C (pocitová: 14 °C)
Vítr: 3 m/s z(e) 10°
Počasí:
Dohlednost: 25 km
Zákl. oblačnosti: N/A
Vlhkost: 77%
Dakar (GOOY) 21.06.2018 01:00 UTC Zobrazit METAR
GOOY 210100Z 28010KT 8000 BKN013 24/21 Q1015
Damascus (OSDI) 21.06.2018 02:00 UTC Zobrazit METAR
OSDI 210200Z 22012KT CAVOK 18/14 Q1015
Debrecen (LHDC) 20.06.2018 22:45 UTC Zobrazit METAR
LHDC 202245Z 05002KT CAVOK 21/16 Q1019
Delhi (VIDP) 20.06.2018 23:00 UTC Zobrazit METAR
VIDP 202300Z 00000KT 2500 HZ SCT040 BKN100 33/20 Q1001 NOSIG
Dhaka (VGZR) Zatím nenačteno  
Diego Garcia (FJDG) 21.06.2018 00:55 UTC Zobrazit METAR
FJDG 210055Z 15008KT 9999 BR SCT015 BKN040 BKN080 25/25 A2990 RMK SLP122 P0001 T02490246
Djibouti (HDAM) 20.06.2018 09:00 UTC Zobrazit METAR
HDAM 200900Z 08007KT 8000 HZ FEW023 37/22 Q1006
Dnipropetrovs'k (UKDD) 12.08.2013 14:00 UTC Zobrazit METAR
UKDD 121400Z CAVOK 33/13 Q1012 08090070 NOSIG
Dodoma (HTDO) 20.06.2018 10:00 UTC Zobrazit METAR
HTDO 201000Z 10010KT 9999 SCT043 26/12 Q1021 NOSIG
Doha (OTBD) 21.06.2018 02:00 UTC Zobrazit METAR
OTBD 210200Z AUTO 32012KT CAVOK 34/19 Q1001 NOSIG
Dortmund (EDLW) 21.06.2018 01:50 UTC Zobrazit METAR
EDLW 210150Z AUTO 22007KT 9999 // FEW039/// 16/14 Q1015
Dresden (EDDC) 21.06.2018 01:50 UTC Zobrazit METAR
EDDC 210150Z 25005KT CAVOK 20/13 Q1015
Dublin (EIDW) 21.06.2018 02:00 UTC Zobrazit METAR
EIDW 210200Z 27010KT 9999 FEW025 07/06 Q1026 NOSIG
Dubrovnik (LDDU) 21.06.2018 02:00 UTC Zobrazit METAR
LDDU 210200Z 10007KT CAVOK 22/14 Q1017 NOSIG
Dushanbe (UTDD) Zatím nenačteno  
Dusseldorf (EDDL) 21.06.2018 01:50 UTC Zobrazit METAR
EDDL 210150Z 22004KT CAVOK 15/13 Q1015 NOSIG
Dzaoudzi (FMCZ) 21.06.2018 02:00 UTC Zobrazit METAR
FMCZ 210200Z AUTO 18009KT 9999 BKN021 BKN027 OVC160 26/23 Q1017 NOSIG
Reklama

Počasí na Váš email

Emaily jsou bez reklamy a bez spamu



Odhlásit newsletter

Reklama


Lunární kalendář

  • 28.06.
  • 06.07.
  • 13.07.
  • 19.07.



Slunečno.cz na Google+

Reklama


Reklama
Povinné ručení
Reklama




Reklama